Time;durP1;ratioP1;P1;durP2;ratioP2;P2;SDS_P1;SDS_P2;PMS_P1;PMS_P2;Temp;Humidity;BMP_temperature;BMP_pressure;BME280_temperature;BME280_humidity;BME280_pressure;Samples;Min_cycle;Max_cycle;Signal;HPM_P1;HPM_P2
2022/07/13 00:01:47;;;;;;;8.82;2.15;;;;;;;;;;5057601;28;20016;-66
2022/07/13 00:04:13;;;;;;;6.72;2.00;;;;;;;;;;5055239;28;20373;-66
2022/07/13 00:06:39;;;;;;;6.22;1.90;;;;;;;;;;5035212;28;20109;-66
2022/07/13 00:09:05;;;;;;;6.95;1.98;;;;;;;;;;5053993;28;20379;-66
2022/07/13 00:11:32;;;;;;;5.95;1.70;;;;;;;;;;5052874;28;20036;-65
2022/07/13 00:13:58;;;;;;;8.10;2.05;;;;;;;;;;5056393;28;20032;-66
2022/07/13 00:16:24;;;;;;;7.47;2.10;;;;;;;;;;5057077;28;20032;-66
2022/07/13 00:18:50;;;;;;;7.88;2.10;;;;;;;;;;5055198;28;20122;-66
2022/07/13 00:21:16;;;;;;;10.07;2.28;;;;;;;;;;5059373;28;20030;-66
2022/07/13 00:23:42;;;;;;;8.00;2.17;;;;;;;;;;5055529;28;20339;-67
2022/07/13 00:26:09;;;;;;;9.00;2.25;;;;;;;;;;5055097;28;20245;-67
2022/07/13 00:28:35;;;;;;;9.70;2.10;;;;;;;;;;5056913;28;20113;-66
2022/07/13 00:31:01;;;;;;;7.45;2.35;;;;;;;;;;5053881;28;20749;-66
2022/07/13 00:33:27;;;;;;;9.13;1.92;;;;;;;;;;5057315;28;20364;-67
2022/07/13 00:35:53;;;;;;;8.30;2.10;;;;;;;;;;5056354;28;20028;-66
2022/07/13 00:38:19;;;;;;;6.43;1.67;;;;;;;;;;5057762;28;20116;-67
2022/07/13 00:40:45;;;;;;;7.57;1.90;;;;;;;;;;5055567;28;20056;-66
2022/07/13 00:43:12;;;;;;;6.85;1.90;;;;;;;;;;5052375;28;20028;-66
2022/07/13 00:45:38;;;;;;;8.45;2.20;;;;;;;;;;5037016;28;20487;-66
2022/07/13 00:48:04;;;;;;;6.88;1.95;;;;;;;;;;5058618;28;20569;-66
2022/07/13 00:50:31;;;;;;;6.28;1.90;;;;;;;;;;5055018;28;20067;-66
2022/07/13 00:52:57;;;;;;;7.30;1.90;;;;;;;;;;5050975;28;20040;-62
2022/07/13 00:55:23;;;;;;;8.90;2.13;;;;;;;;;;5057268;28;20370;-61
2022/07/13 00:57:49;;;;;;;10.85;2.20;;;;;;;;;;5051974;28;20201;-62
2022/07/13 01:00:15;;;;;;;6.60;2.03;;;;;;;;;;5039471;28;20498;-61
2022/07/13 01:02:42;;;;;;;5.35;1.88;;;;;;;;;;5050734;28;20037;-63
2022/07/13 01:05:10;;;;;;;7.03;1.80;;;;;;;;;;5056791;28;20371;-61
2022/07/13 01:07:36;;;;;;;10.02;2.08;;;;;;;;;;5051831;28;20403;-61
2022/07/13 01:10:06;;;;;;;4.95;1.75;;;;;;;;;;5055182;28;20021;-61
2022/07/13 01:12:33;;;;;;;7.07;1.90;;;;;;;;;;5059364;28;20375;-61
2022/07/13 01:15:00;;;;;;;8.35;2.03;;;;;;;;;;5054841;28;20582;-62
2022/07/13 01:17:26;;;;;;;8.18;2.30;;;;;;;;;;5057092;28;20380;-62
2022/07/13 01:19:52;;;;;;;7.07;2.00;;;;;;;;;;5037523;28;20480;-62
2022/07/13 01:22:24;;;;;;;9.48;2.00;;;;;;;;;;5061034;28;20256;-62
2022/07/13 01:24:51;;;;;;;6.20;2.08;;;;;;;;;;5056998;28;20020;-61
2022/07/13 01:27:17;;;;;;;7.15;1.90;;;;;;;;;;5061526;28;20548;-62
2022/07/13 01:29:43;;;;;;;7.80;1.90;;;;;;;;;;5045058;28;20024;-61
2022/07/13 01:32:09;;;;;;;9.60;2.10;;;;;;;;;;5055606;28;20031;-61
2022/07/13 01:34:36;;;;;;;8.13;1.75;;;;;;;;;;5062796;28;20085;-61
2022/07/13 01:37:02;;;;;;;7.65;1.83;;;;;;;;;;5054608;28;20029;-61
2022/07/13 01:39:28;;;;;;;7.10;1.80;;;;;;;;;;5056397;28;20108;-61
2022/07/13 01:41:54;;;;;;;6.53;1.90;;;;;;;;;;5057858;28;20387;-62
2022/07/13 01:44:20;;;;;;;8.20;1.88;;;;;;;;;;5044234;28;20465;-61
2022/07/13 01:46:47;;;;;;;6.25;1.73;;;;;;;;;;5055743;28;20877;-61
2022/07/13 01:49:13;;;;;;;7.82;2.03;;;;;;;;;;5052536;28;20048;-61
2022/07/13 01:51:39;;;;;;;7.50;2.00;;;;;;;;;;5043086;28;20146;-61
2022/07/13 01:54:06;;;;;;;10.95;2.10;;;;;;;;;;5037259;28;20033;-61
2022/07/13 01:56:32;;;;;;;6.97;1.90;;;;;;;;;;5057564;28;20447;-60
2022/07/13 01:58:59;;;;;;;7.82;1.92;;;;;;;;;;5055290;28;20021;-62
2022/07/13 02:01:25;;;;;;;7.25;1.83;;;;;;;;;;5041187;28;20446;-61
2022/07/13 02:03:52;;;;;;;6.93;1.80;;;;;;;;;;5058331;28;20070;-61
2022/07/13 02:06:18;;;;;;;6.47;1.85;;;;;;;;;;5040000;28;20112;-62
2022/07/13 02:08:44;;;;;;;5.13;1.80;;;;;;;;;;5032920;28;20181;-61
2022/07/13 02:11:19;;;;;;;6.90;1.65;;;;;;;;;;5055259;28;20340;-62
2022/07/13 02:13:46;;;;;;;7.43;1.90;;;;;;;;;;5058021;28;20067;-62
2022/07/13 02:16:12;;;;;;;8.32;1.55;;;;;;;;;;5056405;28;20160;-61
2022/07/13 02:18:39;;;;;;;6.60;1.70;;;;;;;;;;5054045;28;20024;-62
2022/07/13 02:21:05;;;;;;;7.53;1.77;;;;;;;;;;5040288;28;20036;-62
2022/07/13 02:23:31;;;;;;;6.82;1.65;;;;;;;;;;5058782;28;20090;-62
2022/07/13 02:25:57;;;;;;;6.47;1.70;;;;;;;;;;5057639;28;20028;-63
2022/07/13 02:28:23;;;;;;;4.85;1.63;;;;;;;;;;5058771;28;20550;-61
2022/07/13 02:30:50;;;;;;;5.90;1.60;;;;;;;;;;5053344;28;20510;-61
2022/07/13 02:33:16;;;;;;;6.93;1.75;;;;;;;;;;5054287;28;20139;-61
2022/07/13 02:35:42;;;;;;;6.90;1.88;;;;;;;;;;5048718;28;20373;-64
2022/07/13 02:38:08;;;;;;;6.82;1.80;;;;;;;;;;5054981;28;20051;-61
2022/07/13 02:40:34;;;;;;;5.43;1.60;;;;;;;;;;5057831;28;20478;-61
2022/07/13 02:43:00;;;;;;;7.75;1.67;;;;;;;;;;5038503;28;20032;-62
2022/07/13 02:45:26;;;;;;;5.55;1.63;;;;;;;;;;5059933;28;20051;-62
2022/07/13 02:47:52;;;;;;;6.30;1.75;;;;;;;;;;5025143;28;20041;-61
2022/07/13 02:50:18;;;;;;;5.60;1.73;;;;;;;;;;5012658;28;20025;-62
2022/07/13 02:52:45;;;;;;;5.28;1.83;;;;;;;;;;5011321;28;20029;-62
2022/07/13 02:55:11;;;;;;;7.40;1.65;;;;;;;;;;5013594;28;20404;-62
2022/07/13 02:57:37;;;;;;;6.82;1.80;;;;;;;;;;5011951;28;20575;-61
2022/07/13 03:00:04;;;;;;;8.32;1.75;;;;;;;;;;5014346;28;20036;-61
2022/07/13 03:02:30;;;;;;;4.55;1.40;;;;;;;;;;5010964;28;20037;-61
2022/07/13 03:04:57;;;;;;;3.80;1.50;;;;;;;;;;5010216;28;20033;-61
2022/07/13 03:07:23;;;;;;;5.28;1.60;;;;;;;;;;5016919;28;20131;-61
2022/07/13 03:09:49;;;;;;;4.55;1.55;;;;;;;;;;5012564;28;20110;-61
2022/07/13 03:12:15;;;;;;;4.85;1.50;;;;;;;;;;5019175;28;20033;-62
2022/07/13 03:14:41;;;;;;;4.78;1.52;;;;;;;;;;5010908;28;20309;-62
2022/07/13 03:17:07;;;;;;;2.88;1.30;;;;;;;;;;5013494;28;20033;-61
2022/07/13 03:19:34;;;;;;;5.18;1.50;;;;;;;;;;5017343;28;20036;-62
2022/07/13 03:22:02;;;;;;;6.53;1.80;;;;;;;;;;5009454;28;20033;-62
2022/07/13 03:24:29;;;;;;;5.85;1.55;;;;;;;;;;5014835;28;20484;-61
2022/07/13 03:26:55;;;;;;;8.13;1.75;;;;;;;;;;5008823;28;20110;-61
2022/07/13 03:29:21;;;;;;;6.05;1.63;;;;;;;;;;5015503;28;20029;-62
2022/07/13 03:31:47;;;;;;;6.70;1.70;;;;;;;;;;5011182;28;20295;-62
2022/07/13 03:34:13;;;;;;;6.10;1.50;;;;;;;;;;5011691;28;20033;-63
2022/07/13 03:36:40;;;;;;;8.68;1.73;;;;;;;;;;5015139;28;20658;-62
2022/07/13 03:39:06;;;;;;;4.95;1.50;;;;;;;;;;5013803;28;20481;-63
2022/07/13 03:41:32;;;;;;;5.55;1.80;;;;;;;;;;5021364;28;20033;-62
2022/07/13 03:43:58;;;;;;;9.32;2.20;;;;;;;;;;5013231;28;20110;-62
2022/07/13 03:46:24;;;;;;;8.73;2.00;;;;;;;;;;5012915;28;20037;-63
2022/07/13 03:48:50;;;;;;;5.68;2.00;;;;;;;;;;5043292;28;20764;-62
2022/07/13 03:51:16;;;;;;;7.63;1.90;;;;;;;;;;5052460;28;20133;-62
2022/07/13 03:53:43;;;;;;;5.60;1.80;;;;;;;;;;5049455;28;20035;-61
2022/07/13 03:56:09;;;;;;;6.97;1.90;;;;;;;;;;5053257;28;20027;-61
2022/07/13 03:58:35;;;;;;;5.07;2.10;;;;;;;;;;5059183;28;20386;-62
2022/07/13 04:01:01;;;;;;;8.75;2.05;;;;;;;;;;5051281;28;20043;-62
2022/07/13 04:03:27;;;;;;;6.60;1.70;;;;;;;;;;5056134;28;20353;-62
2022/07/13 04:05:53;;;;;;;10.07;2.33;;;;;;;;;;5049686;28;20111;-62
2022/07/13 04:08:19;;;;;;;10.00;2.10;;;;;;;;;;5030351;28;20685;-61
2022/07/13 04:10:45;;;;;;;7.90;1.90;;;;;;;;;;5054521;28;20136;-61
2022/07/13 04:13:11;;;;;;;9.05;2.42;;;;;;;;;;5054195;28;20538;-62
2022/07/13 04:15:37;;;;;;;8.93;2.25;;;;;;;;;;5054484;28;20132;-62
2022/07/13 04:18:03;;;;;;;8.00;2.28;;;;;;;;;;5055889;28;20032;-62
2022/07/13 04:20:30;;;;;;;9.02;2.55;;;;;;;;;;5051063;28;20101;-61
2022/07/13 04:22:56;;;;;;;8.45;2.55;;;;;;;;;;5057723;28;21007;-61
2022/07/13 04:25:22;;;;;;;7.45;2.20;;;;;;;;;;5036947;28;20438;-62
2022/07/13 04:27:48;;;;;;;10.27;2.47;;;;;;;;;;5028239;28;20498;-62
2022/07/13 04:30:14;;;;;;;9.75;2.67;;;;;;;;;;5048826;28;20113;-62
2022/07/13 04:32:40;;;;;;;12.35;2.90;;;;;;;;;;5045429;28;20035;-62
2022/07/13 04:35:06;;;;;;;10.68;3.10;;;;;;;;;;5054049;28;20038;-62
2022/07/13 04:37:32;;;;;;;9.70;2.70;;;;;;;;;;5036796;28;20021;-62
2022/07/13 04:39:59;;;;;;;13.15;2.78;;;;;;;;;;5029044;28;20036;-62
2022/07/13 04:42:25;;;;;;;8.52;2.40;;;;;;;;;;5052869;28;20131;-62
2022/07/13 04:44:51;;;;;;;11.60;2.88;;;;;;;;;;5032872;28;20055;-62
2022/07/13 04:47:17;;;;;;;9.65;2.95;;;;;;;;;;5052141;28;20636;-62
2022/07/13 04:49:43;;;;;;;13.65;3.10;;;;;;;;;;5053799;28;20121;-62
2022/07/13 04:52:09;;;;;;;9.55;2.80;;;;;;;;;;5056608;28;20033;-62
2022/07/13 04:54:35;;;;;;;9.05;2.72;;;;;;;;;;5055960;28;20103;-62
2022/07/13 04:57:01;;;;;;;11.73;2.80;;;;;;;;;;5052761;28;20123;-62
2022/07/13 04:59:27;;;;;;;9.35;2.60;;;;;;;;;;5054833;28;20040;-62
2022/07/13 05:01:53;;;;;;;12.45;2.80;;;;;;;;;;5043489;28;20028;-62
2022/07/13 05:04:20;;;;;;;10.57;2.92;;;;;;;;;;5058790;28;20040;-62
2022/07/13 05:06:46;;;;;;;13.18;2.30;;;;;;;;;;5057290;28;20031;-62
2022/07/13 05:09:12;;;;;;;11.50;2.60;;;;;;;;;;5062726;28;20747;-62
2022/07/13 05:11:39;;;;;;;11.40;2.38;;;;;;;;;;5054625;28;20032;-62
2022/07/13 05:14:05;;;;;;;12.93;3.05;;;;;;;;;;5064662;28;20034;-62
2022/07/13 05:16:32;;;;;;;9.90;2.53;;;;;;;;;;5057639;28;20853;-62
2022/07/13 05:18:58;;;;;;;9.48;2.40;;;;;;;;;;5054323;28;20285;-61
2022/07/13 05:21:24;;;;;;;11.27;2.88;;;;;;;;;;5057090;28;20141;-61
2022/07/13 05:23:50;;;;;;;10.70;2.35;;;;;;;;;;5051914;28;20527;-61
2022/07/13 05:26:16;;;;;;;11.18;2.50;;;;;;;;;;5051846;28;20025;-61
2022/07/13 05:28:42;;;;;;;11.25;2.35;;;;;;;;;;5048561;28;20137;-61
2022/07/13 05:31:08;;;;;;;10.88;2.20;;;;;;;;;;5052744;28;20024;-63
2022/07/13 05:33:34;;;;;;;10.15;2.30;;;;;;;;;;5057408;28;20404;-62
2022/07/13 05:36:04;;;;;;;12.25;2.55;;;;;;;;;;5056731;28;20817;-63
2022/07/13 05:38:30;;;;;;;13.93;2.60;;;;;;;;;;5036564;28;20445;-63
2022/07/13 05:40:56;;;;;;;9.05;2.50;;;;;;;;;;5037448;28;20032;-63
2022/07/13 05:43:22;;;;;;;9.23;2.30;;;;;;;;;;5055399;28;20502;-62
2022/07/13 05:45:49;;;;;;;9.73;2.45;;;;;;;;;;5053189;28;20052;-63
2022/07/13 05:48:15;;;;;;;10.23;2.40;;;;;;;;;;5022135;28;20072;-62
2022/07/13 05:50:41;;;;;;;8.95;2.10;;;;;;;;;;5017091;28;20040;-62
2022/07/13 05:53:07;;;;;;;14.68;2.80;;;;;;;;;;5017063;28;20472;-62
2022/07/13 05:55:33;;;;;;;12.27;2.58;;;;;;;;;;5017992;28;20629;-62
2022/07/13 05:58:03;;;;;;;10.93;2.65;;;;;;;;;;5013502;28;20030;-63
2022/07/13 06:00:29;;;;;;;8.35;2.30;;;;;;;;;;5026832;28;20904;-63
2022/07/13 06:02:55;;;;;;;17.42;3.03;;;;;;;;;;5014692;28;20037;-62
2022/07/13 06:05:21;;;;;;;13.80;3.10;;;;;;;;;;5017145;28;20147;-62
2022/07/13 06:07:47;;;;;;;13.15;3.13;;;;;;;;;;5009562;28;20044;-62
2022/07/13 06:10:13;;;;;;;10.10;2.53;;;;;;;;;;5013102;28;20055;-62
2022/07/13 06:12:39;;;;;;;9.98;2.80;;;;;;;;;;5015207;28;20049;-63
2022/07/13 06:15:06;;;;;;;13.55;2.97;;;;;;;;;;5015342;28;20036;-62
2022/07/13 06:17:32;;;;;;;12.48;3.08;;;;;;;;;;5015267;28;20080;-63
2022/07/13 06:19:58;;;;;;;11.48;3.03;;;;;;;;;;5011041;28;20032;-63
2022/07/13 06:22:24;;;;;;;12.48;2.88;;;;;;;;;;5014446;28;20150;-62
2022/07/13 06:24:50;;;;;;;10.85;2.60;;;;;;;;;;5009777;28;20025;-62
2022/07/13 06:27:16;;;;;;;11.88;3.45;;;;;;;;;;5022022;28;20052;-63
2022/07/13 06:29:42;;;;;;;11.18;3.15;;;;;;;;;;5010631;28;20029;-63
2022/07/13 06:32:08;;;;;;;14.65;5.30;;;;;;;;;;5019840;28;20381;-62
2022/07/13 06:34:35;;;;;;;10.27;4.25;;;;;;;;;;5013904;28;20511;-62
2022/07/13 06:37:01;;;;;;;11.38;4.63;;;;;;;;;;5011835;28;20060;-63
2022/07/13 06:39:27;;;;;;;15.68;4.35;;;;;;;;;;5013447;28;20045;-60
2022/07/13 06:41:53;;;;;;;12.13;3.80;;;;;;;;;;5015106;28;20145;-62
2022/07/13 06:44:19;;;;;;;13.23;3.05;;;;;;;;;;5009879;28;20051;-62
2022/07/13 06:46:45;;;;;;;15.02;3.83;;;;;;;;;;5013195;28;20065;-62
2022/07/13 06:49:11;;;;;;;15.48;5.18;;;;;;;;;;5014552;28;20155;-63
2022/07/13 06:51:37;;;;;;;15.45;4.55;;;;;;;;;;5011727;28;20676;-62
2022/07/13 06:54:03;;;;;;;12.35;4.53;;;;;;;;;;5012097;28;20029;-63
2022/07/13 06:56:30;;;;;;;14.95;4.43;;;;;;;;;;5011987;28;20353;-63
2022/07/13 06:58:56;;;;;;;12.82;5.22;;;;;;;;;;5016859;28;21930;-63
2022/07/13 07:01:22;;;;;;;13.32;4.03;;;;;;;;;;5016988;28;20043;-62
2022/07/13 07:03:48;;;;;;;11.25;3.50;;;;;;;;;;5007422;28;20030;-63
2022/07/13 07:06:14;;;;;;;11.63;3.92;;;;;;;;;;5014691;28;20807;-62
2022/07/13 07:08:40;;;;;;;11.90;3.70;;;;;;;;;;5013123;28;20036;-63
2022/07/13 07:11:06;;;;;;;11.65;3.40;;;;;;;;;;5018687;28;20480;-63
2022/07/13 07:13:32;;;;;;;16.05;7.13;;;;;;;;;;5014955;28;20587;-62
2022/07/13 07:15:59;;;;;;;9.93;3.00;;;;;;;;;;5014798;28;20114;-63
2022/07/13 07:18:25;;;;;;;14.63;4.45;;;;;;;;;;5014504;28;20037;-63
2022/07/13 07:20:51;;;;;;;10.55;3.25;;;;;;;;;;5012051;28;20110;-61
2022/07/13 07:23:18;;;;;;;11.02;3.10;;;;;;;;;;5016960;28;20419;-62
2022/07/13 07:25:44;;;;;;;9.13;2.97;;;;;;;;;;5014803;28;20037;-61
2022/07/13 07:28:11;;;;;;;11.13;3.90;;;;;;;;;;5016189;28;20100;-61
2022/07/13 07:30:37;;;;;;;11.10;3.47;;;;;;;;;;5010970;28;20526;-61
2022/07/13 07:33:04;;;;;;;12.00;3.45;;;;;;;;;;5016769;28;20256;-62
2022/07/13 07:35:30;;;;;;;10.30;3.10;;;;;;;;;;5011050;28;20340;-62
2022/07/13 07:37:56;;;;;;;9.70;2.70;;;;;;;;;;5011204;28;22168;-63
2022/07/13 07:40:22;;;;;;;8.73;2.30;;;;;;;;;;5014800;28;20052;-61
2022/07/13 07:42:48;;;;;;;13.05;2.92;;;;;;;;;;5016368;28;20123;-62
2022/07/13 07:45:14;;;;;;;8.57;2.00;;;;;;;;;;5012252;28;20034;-62
2022/07/13 07:47:41;;;;;;;11.05;2.72;;;;;;;;;;5021774;28;20071;-61
2022/07/13 07:50:07;;;;;;;10.18;2.35;;;;;;;;;;5036525;28;20029;-62
2022/07/13 07:52:33;;;;;;;14.07;2.30;;;;;;;;;;5055061;28;20418;-62
2022/07/13 07:55:00;;;;;;;8.85;1.90;;;;;;;;;;5036091;28;20392;-62
2022/07/13 07:57:26;;;;;;;7.10;1.70;;;;;;;;;;5053260;28;20062;-61
2022/07/13 07:59:52;;;;;;;8.57;1.80;;;;;;;;;;5050774;28;20601;-61
2022/07/13 08:02:18;;;;;;;7.28;1.58;;;;;;;;;;5051132;28;20036;-62
2022/07/13 08:04:45;;;;;;;6.70;1.70;;;;;;;;;;5051019;28;20032;-62
2022/07/13 08:07:11;;;;;;;8.48;1.80;;;;;;;;;;5052729;28;20029;-61
2022/07/13 08:09:37;;;;;;;7.20;1.73;;;;;;;;;;5051950;28;20222;-62
2022/07/13 08:12:04;;;;;;;5.40;1.40;;;;;;;;;;5060110;28;20379;-62
2022/07/13 08:14:30;;;;;;;5.10;1.35;;;;;;;;;;5050793;28;20029;-62
2022/07/13 08:16:57;;;;;;;4.60;1.40;;;;;;;;;;5034891;28;20075;-62
2022/07/13 08:19:26;;;;;;;5.55;1.60;;;;;;;;;;5035231;28;20498;-62
2022/07/13 08:21:52;;;;;;;8.02;1.75;;;;;;;;;;5034041;28;20032;-63
2022/07/13 08:24:18;;;;;;;7.38;1.75;;;;;;;;;;5035293;28;20366;-63
2022/07/13 08:26:44;;;;;;;7.00;1.25;;;;;;;;;;5049470;28;20126;-62
2022/07/13 08:29:13;;;;;;;8.15;1.80;;;;;;;;;;5045306;28;20475;-62
2022/07/13 08:31:39;;;;;;;8.77;1.80;;;;;;;;;;5047462;28;20024;-62
2022/07/13 08:39:35;;;;;;;7.57;1.65;;;;;;;;;;5055859;28;20097;-61
2022/07/13 08:42:01;;;;;;;8.27;1.83;;;;;;;;;;5054423;28;20110;-62
2022/07/13 08:44:27;;;;;;;7.60;1.80;;;;;;;;;;5063347;28;20740;-62
2022/07/13 08:46:53;;;;;;;7.47;1.50;;;;;;;;;;5037199;28;20032;-62
2022/07/13 08:49:21;;;;;;;8.13;1.60;;;;;;;;;;5056159;28;20045;-62
2022/07/13 08:51:47;;;;;;;4.65;1.45;;;;;;;;;;5056829;28;20024;-62
2022/07/13 08:54:14;;;;;;;6.50;1.60;;;;;;;;;;5056626;28;20590;-62
2022/07/13 08:56:43;;;;;;;5.55;1.70;;;;;;;;;;5054300;28;20033;-63
2022/07/13 08:59:09;;;;;;;6.22;1.27;;;;;;;;;;5061157;28;20514;-62
2022/07/13 09:01:35;;;;;;;3.92;1.30;;;;;;;;;;5056881;28;20035;-62
2022/07/13 09:04:01;;;;;;;10.05;1.80;;;;;;;;;;5056387;28;20032;-62
2022/07/13 09:06:39;;;;;;;7.95;1.65;;;;;;;;;;5060090;28;20028;-62
2022/07/13 09:09:06;;;;;;;5.25;1.50;;;;;;;;;;5039218;28;20494;-63
2022/07/13 09:11:32;;;;;;;5.03;1.63;;;;;;;;;;5036487;28;20464;-62
2022/07/13 09:13:58;;;;;;;7.50;1.65;;;;;;;;;;5051247;28;20036;-62
2022/07/13 09:16:25;;;;;;;9.00;1.60;;;;;;;;;;5055500;28;20123;-62
2022/07/13 09:18:52;;;;;;;6.28;1.38;;;;;;;;;;5034693;28;20071;-61
2022/07/13 09:21:18;;;;;;;6.65;1.50;;;;;;;;;;5060129;28;20541;-62
2022/07/13 09:23:47;;;;;;;4.35;1.50;;;;;;;;;;5054566;28;20035;-62
2022/07/13 09:26:13;;;;;;;4.72;1.48;;;;;;;;;;5058433;28;20509;-62
2022/07/13 09:28:46;;;;;;;7.45;1.60;;;;;;;;;;5052686;28;20036;-62
2022/07/13 09:31:16;;;;;;;8.27;1.55;;;;;;;;;;5043111;28;20035;-62
2022/07/13 09:33:46;;;;;;;4.90;1.40;;;;;;;;;;5055004;28;20394;-62
2022/07/13 09:36:23;;;;;;;7.45;1.45;;;;;;;;;;5039668;28;20446;-62
2022/07/13 09:38:53;;;;;;;7.05;1.50;;;;;;;;;;5053139;28;20028;-62
2022/07/13 09:41:25;;;;;;;5.20;1.40;;;;;;;;;;5054787;28;20060;-62
2022/07/13 09:46:49;;;;;;;8.48;1.85;;;;;;;;;;5006515;28;20028;-61
2022/07/13 09:49:30;;;;;;;9.40;1.70;;;;;;;;;;5058901;28;20486;-62
2022/07/13 09:51:57;;;;;;;7.50;1.40;;;;;;;;;;5041104;28;20028;-62
2022/07/13 09:54:26;;;;;;;5.38;1.40;;;;;;;;;;5058680;28;20169;-62
2022/07/13 09:56:55;;;;;;;5.22;1.30;;;;;;;;;;5052679;28;20040;-62
2022/07/13 09:59:21;;;;;;;5.95;1.40;;;;;;;;;;5058838;28;20029;-62
2022/07/13 10:01:48;;;;;;;6.18;1.30;;;;;;;;;;5056413;28;20364;-62
2022/07/13 10:04:15;;;;;;;5.47;1.35;;;;;;;;;;5057095;28;20033;-62
2022/07/13 10:06:41;;;;;;;7.60;1.40;;;;;;;;;;5036193;28;20020;-62
2022/07/13 10:09:07;;;;;;;10.32;1.60;;;;;;;;;;5055251;28;20476;-63
2022/07/13 10:11:34;;;;;;;6.82;1.50;;;;;;;;;;5040238;28;20464;-63
2022/07/13 10:14:00;;;;;;;5.03;1.40;;;;;;;;;;5034135;28;20036;-62
2022/07/13 10:16:30;;;;;;;6.15;1.40;;;;;;;;;;5058688;28;20040;-62
2022/07/13 10:18:58;;;;;;;6.70;1.40;;;;;;;;;;5039692;28;20169;-62
2022/07/13 10:21:24;;;;;;;3.58;1.20;;;;;;;;;;5041294;28;20201;-62
2022/07/13 10:23:50;;;;;;;5.90;1.65;;;;;;;;;;5052481;28;20043;-61
2022/07/13 10:26:20;;;;;;;5.50;1.38;;;;;;;;;;5040124;28;20509;-61
2022/07/13 10:29:05;;;;;;;5.90;1.52;;;;;;;;;;5054250;28;20052;-61
2022/07/13 10:31:33;;;;;;;6.27;1.53;;;;;;;;;;5054909;28;20075;-63
2022/07/13 10:34:00;;;;;;;5.38;1.33;;;;;;;;;;5037511;28;20042;-61
2022/07/13 10:36:45;;;;;;;3.88;1.20;;;;;;;;;;5056017;28;20762;-64
2022/07/13 10:39:11;;;;;;;6.28;1.30;;;;;;;;;;5056487;28;20037;-61
2022/07/13 10:41:55;;;;;;;7.47;1.27;;;;;;;;;;5033351;28;20033;-62
2022/07/13 10:44:30;;;;;;;5.97;1.40;;;;;;;;;;5056494;28;20032;-63
2022/07/13 10:46:56;;;;;;;4.80;1.27;;;;;;;;;;5054096;28;20870;-63
2022/07/13 10:49:29;;;;;;;6.18;1.40;;;;;;;;;;5015388;28;20460;-63
2022/07/13 10:51:57;;;;;;;4.07;1.30;;;;;;;;;;5010170;28;20150;-63
2022/07/13 10:54:23;;;;;;;5.75;1.42;;;;;;;;;;5017700;28;20029;-62
2022/07/13 10:57:25;;;;;;;6.18;1.40;;;;;;;;;;5015115;28;20621;-62
2022/07/13 10:59:51;;;;;;;8.13;1.50;;;;;;;;;;4970672;28;20040;-64
2022/07/13 11:02:36;;;;;;;3.85;1.23;;;;;;;;;;4956122;28;20053;-65
2022/07/13 11:05:02;;;;;;;6.43;1.60;;;;;;;;;;4956351;28;20621;-63
2022/07/13 11:07:49;;;;;;;5.20;1.55;;;;;;;;;;4974861;28;20389;-64
2022/07/13 11:10:25;;;;;;;4.55;1.10;;;;;;;;;;4973627;28;20054;-63
2022/07/13 11:12:58;;;;;;;7.28;1.40;;;;;;;;;;4948680;28;20034;-63
2022/07/13 11:15:41;;;;;;;5.55;1.27;;;;;;;;;;4971129;28;20053;-63
2022/07/13 11:18:23;;;;;;;5.50;1.50;;;;;;;;;;4972512;28;20251;-63
2022/07/13 11:21:02;;;;;;;6.00;1.40;;;;;;;;;;4965272;28;20043;-63
2022/07/13 11:26:39;;;;;;;4.75;1.35;;;;;;;;;;4970786;28;20184;-63
2022/07/13 11:29:24;;;;;;;4.22;1.27;;;;;;;;;;4971290;28;20559;-63
2022/07/13 11:32:03;;;;;;;6.35;1.60;;;;;;;;;;4966916;28;20457;-63
2022/07/13 11:34:30;;;;;;;4.03;1.30;;;;;;;;;;4994604;28;20477;-62
2022/07/13 11:36:58;;;;;;;4.70;1.33;;;;;;;;;;5008126;28;20045;-63
2022/07/13 11:39:25;;;;;;;4.93;1.30;;;;;;;;;;5011552;28;20151;-62
2022/07/13 11:41:51;;;;;;;5.28;1.20;;;;;;;;;;5010280;28;20049;-65
2022/07/13 11:44:28;;;;;;;5.75;1.23;;;;;;;;;;5008141;28;20033;-62
2022/07/13 11:46:55;;;;;;;5.38;1.35;;;;;;;;;;5006028;28;20044;-62
2022/07/13 11:49:22;;;;;;;4.88;1.20;;;;;;;;;;5051975;28;20109;-62
2022/07/13 11:51:48;;;;;;;7.22;1.33;;;;;;;;;;5035198;28;20036;-63
2022/07/13 11:54:18;;;;;;;6.65;1.40;;;;;;;;;;5034443;28;20558;-62
2022/07/13 11:56:47;;;;;;;3.63;1.00;;;;;;;;;;5033317;28;20167;-63
2022/07/13 11:59:14;;;;;;;7.00;1.20;;;;;;;;;;5054827;28;20028;-63
2022/07/13 12:01:48;;;;;;;4.15;1.33;;;;;;;;;;5049240;28;20479;-62
2022/07/13 12:04:21;;;;;;;4.45;1.30;;;;;;;;;;5056694;28;20699;-62
2022/07/13 12:06:47;;;;;;;4.88;1.35;;;;;;;;;;5032084;28;20041;-66
2022/07/13 12:09:19;;;;;;;5.65;1.30;;;;;;;;;;5059148;28;20027;-66
2022/07/13 12:11:46;;;;;;;6.72;1.60;;;;;;;;;;5049147;28;20035;-68
2022/07/13 12:14:12;;;;;;;3.13;1.10;;;;;;;;;;5050893;28;20471;-66
2022/07/13 12:16:39;;;;;;;7.68;1.50;;;;;;;;;;5047594;28;20106;-66
2022/07/13 12:19:08;;;;;;;2.70;0.82;;;;;;;;;;5034146;28;20114;-67
2022/07/13 12:21:34;;;;;;;5.43;1.23;;;;;;;;;;5051983;28;20035;-66
2022/07/13 12:24:01;;;;;;;5.68;1.30;;;;;;;;;;5048486;28;20029;-67
2022/07/13 12:26:28;;;;;;;5.97;1.10;;;;;;;;;;5050619;28;20383;-68
2022/07/13 12:28:54;;;;;;;4.20;1.20;;;;;;;;;;5047039;28;20032;-67
2022/07/13 12:31:22;;;;;;;2.97;0.93;;;;;;;;;;5052124;28;20031;-67
2022/07/13 12:33:51;;;;;;;6.75;1.00;;;;;;;;;;5047835;28;20032;-67
2022/07/13 12:36:20;;;;;;;4.72;1.10;;;;;;;;;;5034690;28;20094;-67
2022/07/13 12:39:07;;;;;;;6.25;1.20;;;;;;;;;;5029639;28;20056;-66
2022/07/13 12:41:34;;;;;;;6.90;1.60;;;;;;;;;;5032824;28;20936;-67
2022/07/13 12:44:02;;;;;;;7.07;1.52;;;;;;;;;;5048977;28;20586;-67
2022/07/13 12:46:44;;;;;;;5.38;1.00;;;;;;;;;;5052770;28;20028;-67
2022/07/13 12:49:10;;;;;;;4.43;1.10;;;;;;;;;;5032139;28;20036;-67
2022/07/13 12:51:46;;;;;;;5.60;1.05;;;;;;;;;;5053583;28;20370;-67
2022/07/13 12:54:13;;;;;;;10.98;1.20;;;;;;;;;;5055968;28;20032;-67
2022/07/13 12:56:48;;;;;;;4.47;0.85;;;;;;;;;;5054215;28;20050;-66
2022/07/13 12:59:13;;;;;;;;;;;;;;;;;;5034562;28;20123;-67
2022/07/13 13:01:40;;;;;;;5.72;1.08;;;;;;;;;;5052994;28;20265;-68
2022/07/13 13:04:07;;;;;;;10.82;1.48;;;;;;;;;;5054078;28;20104;-68
2022/07/13 13:06:34;;;;;;;5.82;1.10;;;;;;;;;;5060775;28;20075;-66
2022/07/13 13:09:03;;;;;;;4.97;1.00;;;;;;;;;;5035417;28;20024;-66
2022/07/13 13:11:29;;;;;;;6.78;1.17;;;;;;;;;;5036931;28;20099;-67
2022/07/13 13:13:55;;;;;;;3.83;0.90;;;;;;;;;;5052572;28;20341;-67
2022/07/13 13:16:22;;;;;;;5.00;0.82;;;;;;;;;;5056271;28;20012;-67
2022/07/13 13:18:48;;;;;;;4.32;0.90;;;;;;;;;;5055689;28;20036;-67
2022/07/13 13:21:14;;;;;;;4.63;0.90;;;;;;;;;;5037513;28;20053;-66
2022/07/13 13:23:40;;;;;;;5.50;0.90;;;;;;;;;;5058814;28;20479;-66
2022/07/13 13:26:06;;;;;;;4.05;0.82;;;;;;;;;;5060200;28;20028;-67
2022/07/13 13:31:22;;;;;;;4.85;0.85;;;;;;;;;;4980235;28;20034;-66
2022/07/13 13:33:48;;;;;;;3.38;0.80;;;;;;;;;;4974541;28;20026;-66
2022/07/13 13:36:14;;;;;;;5.75;0.98;;;;;;;;;;4975367;28;20167;-68
2022/07/13 13:38:40;;;;;;;4.65;0.98;;;;;;;;;;4976333;28;20619;-68
2022/07/13 13:41:06;;;;;;;5.82;1.02;;;;;;;;;;4977718;28;20038;-67
2022/07/13 13:43:32;;;;;;;5.93;0.90;;;;;;;;;;4978320;28;20041;-67
2022/07/13 13:45:59;;;;;;;2.10;0.70;;;;;;;;;;4974897;28;20088;-67
2022/07/13 13:48:25;;;;;;;4.32;0.70;;;;;;;;;;4975034;28;20610;-67
2022/07/13 13:50:52;;;;;;;4.53;0.88;;;;;;;;;;4977426;28;20063;-67
2022/07/13 13:53:18;;;;;;;5.13;1.00;;;;;;;;;;4975600;28;20049;-66
2022/07/13 13:55:44;;;;;;;4.30;0.90;;;;;;;;;;4975042;28;20054;-68
2022/07/13 13:58:10;;;;;;;5.07;1.00;;;;;;;;;;4979651;28;20117;-69
2022/07/13 14:00:36;;;;;;;4.57;1.00;;;;;;;;;;4977661;28;20406;-69
2022/07/13 14:03:03;;;;;;;4.13;1.00;;;;;;;;;;4975497;28;20109;-68
2022/07/13 14:05:29;;;;;;;2.28;0.70;;;;;;;;;;4980075;28;20516;-67
2022/07/13 14:07:55;;;;;;;6.97;0.90;;;;;;;;;;4998080;28;20652;-67
2022/07/13 14:10:23;;;;;;;4.22;0.75;;;;;;;;;;5059075;28;20544;-67
2022/07/13 14:12:49;;;;;;;6.93;1.00;;;;;;;;;;5055016;28;20434;-66
2022/07/13 14:15:15;;;;;;;6.60;1.15;;;;;;;;;;5041241;28;20033;-68
2022/07/13 14:17:41;;;;;;;3.63;1.00;;;;;;;;;;5031786;28;20032;-67
2022/07/13 14:20:08;;;;;;;4.95;0.82;;;;;;;;;;5053573;28;20647;-68
2022/07/13 14:22:34;;;;;;;4.20;0.93;;;;;;;;;;5054451;28;20028;-68
2022/07/13 14:25:00;;;;;;;2.88;0.85;;;;;;;;;;5048229;28;20384;-68
2022/07/13 14:27:27;;;;;;;4.15;0.98;;;;;;;;;;5053456;28;20454;-68
2022/07/13 14:29:53;;;;;;;3.63;1.00;;;;;;;;;;5035149;28;20027;-67
2022/07/13 14:32:19;;;;;;;3.58;0.90;;;;;;;;;;5056983;28;20024;-67
2022/07/13 14:34:46;;;;;;;5.40;1.10;;;;;;;;;;5054152;28;20048;-67
2022/07/13 14:37:23;;;;;;;3.08;0.90;;;;;;;;;;5058699;28;20490;-68
2022/07/13 14:39:49;;;;;;;4.03;0.70;;;;;;;;;;5048571;28;20052;-68
2022/07/13 14:42:15;;;;;;;4.15;0.80;;;;;;;;;;5055171;28;20036;-67
2022/07/13 14:44:41;;;;;;;5.85;1.00;;;;;;;;;;5031780;28;20120;-67
2022/07/13 14:47:08;;;;;;;7.05;1.20;;;;;;;;;;5051665;28;20079;-67
2022/07/13 14:49:34;;;;;;;4.85;0.88;;;;;;;;;;5035311;28;20388;-67
2022/07/13 14:52:00;;;;;;;5.25;0.90;;;;;;;;;;5052321;28;20031;-68
2022/07/13 14:54:26;;;;;;;4.88;0.90;;;;;;;;;;5041147;28;20548;-68
2022/07/13 14:56:54;;;;;;;3.55;0.75;;;;;;;;;;5055514;28;20440;-67